createdAt,value
2017-11-01T00:01:19.842Z,4.40
2017-11-01T00:03:46.125Z,4.53
2017-11-01T00:06:12.783Z,4.20
2017-11-01T00:08:38.872Z,4.33
2017-11-01T00:11:05.003Z,3.40
2017-11-01T00:13:31.213Z,3.77
2017-11-01T00:15:57.450Z,4.67
2017-11-01T00:18:23.711Z,3.63
2017-11-01T00:20:49.850Z,3.53
2017-11-01T00:23:16.043Z,3.50
2017-11-01T00:25:42.239Z,4.00
2017-11-01T00:28:08.378Z,3.83
2017-11-01T00:30:34.551Z,4.50
2017-11-01T00:33:00.710Z,3.57
2017-11-01T00:35:26.982Z,3.17
2017-11-01T00:37:53.164Z,3.53
2017-11-01T00:40:19.336Z,3.50
2017-11-01T00:42:45.467Z,3.30
2017-11-01T00:45:11.641Z,3.50
2017-11-01T00:47:37.783Z,4.13
2017-11-01T00:50:03.970Z,3.97
2017-11-01T00:52:30.908Z,4.00
2017-11-01T00:54:57.771Z,3.10
2017-11-01T00:57:23.868Z,3.03
2017-11-01T00:59:50.156Z,3.67
2017-11-01T01:02:16.455Z,3.53
2017-11-01T01:04:42.655Z,3.10
2017-11-01T01:07:09.498Z,3.70
2017-11-01T01:09:36.507Z,3.53
2017-11-01T01:12:02.769Z,3.40
2017-11-01T01:14:29.714Z,3.90
2017-11-01T01:16:57.031Z,4.37
2017-11-01T01:19:23.143Z,3.23
2017-11-01T01:21:49.317Z,3.70
2017-11-01T01:24:16.258Z,4.00
2017-11-01T01:26:43.121Z,3.53
2017-11-01T01:29:09.290Z,3.60
2017-11-01T01:31:35.508Z,3.80
2017-11-01T01:34:01.757Z,4.10
2017-11-01T01:36:27.925Z,4.30
2017-11-01T01:38:54.906Z,3.83
2017-11-01T01:41:21.053Z,4.10
2017-11-01T01:43:47.211Z,3.87
2017-11-01T01:46:14.089Z,4.00
2017-11-01T01:48:40.301Z,3.47
2017-11-01T01:51:06.648Z,4.20
2017-11-01T01:53:32.795Z,4.17
2017-11-01T01:55:59.065Z,3.67
2017-11-01T01:58:25.906Z,3.37
2017-11-01T02:00:52.981Z,4.30
2017-11-01T02:03:19.174Z,4.57
2017-11-01T02:05:46.069Z,4.80
2017-11-01T02:08:13.092Z,4.10
2017-11-01T02:10:39.180Z,4.60
2017-11-01T02:13:05.377Z,4.20
2017-11-01T02:15:32.240Z,4.60
2017-11-01T02:17:58.478Z,5.03
2017-11-01T02:20:25.421Z,4.30
2017-11-01T02:22:52.351Z,4.70
2017-11-01T02:25:18.509Z,4.90
2017-11-01T02:27:44.731Z,4.70
2017-11-01T02:30:10.860Z,5.07
2017-11-01T02:32:37.057Z,5.60
2017-11-01T02:35:03.961Z,5.20
2017-11-01T02:37:30.089Z,5.20
2017-11-01T02:39:56.265Z,5.13
2017-11-01T02:42:23.153Z,5.77
2017-11-01T02:44:49.432Z,6.30
2017-11-01T02:47:16.293Z,5.67
2017-11-01T02:49:42.419Z,6.07
2017-11-01T02:52:08.579Z,6.63
2017-11-01T02:54:34.712Z,6.20
2017-11-01T02:57:00.824Z,5.40
2017-11-01T02:59:26.967Z,6.13
2017-11-01T03:01:53.111Z,5.37
2017-11-01T03:04:19.318Z,5.73
2017-11-01T03:06:45.463Z,5.53
2017-11-01T03:09:12.426Z,6.07
2017-11-01T03:11:38.585Z,6.07
2017-11-01T03:14:04.741Z,5.63
2017-11-01T03:16:30.898Z,6.13
2017-11-01T03:18:57.758Z,6.57
2017-11-01T03:21:23.997Z,6.23
2017-11-01T03:23:50.238Z,5.63
2017-11-01T03:26:16.393Z,6.10
2017-11-01T03:28:42.704Z,5.70
2017-11-01T03:31:08.797Z,5.73
2017-11-01T03:33:34.922Z,6.67
2017-11-01T03:36:01.085Z,5.80
2017-11-01T03:38:27.251Z,5.90
2017-11-01T03:40:53.494Z,5.47
2017-11-01T03:43:19.722Z,5.77
2017-11-01T03:45:45.874Z,5.63
2017-11-01T03:48:12.185Z,5.00
2017-11-01T03:50:38.414Z,5.07
2017-11-01T03:53:04.532Z,5.83
2017-11-01T03:55:30.715Z,5.73
2017-11-01T03:57:56.921Z,5.10
2017-11-01T04:00:23.060Z,5.30
2017-11-01T04:02:49.340Z,5.27
2017-11-01T04:05:15.620Z,5.30
2017-11-01T04:07:41.860Z,4.63
2017-11-01T04:10:08.763Z,4.43
2017-11-01T04:12:34.880Z,4.53
2017-11-01T04:15:01.834Z,4.87
2017-11-01T04:17:28.008Z,4.20
2017-11-01T04:19:55.290Z,5.03
2017-11-01T04:22:21.397Z,4.53
2017-11-01T04:24:47.665Z,5.03
2017-11-01T04:27:13.887Z,4.23
2017-11-01T04:29:40.007Z,4.40
2017-11-01T04:32:06.257Z,4.53
2017-11-01T04:34:32.408Z,4.80
2017-11-01T04:36:59.306Z,4.30
2017-11-01T04:39:25.484Z,4.87
2017-11-01T04:41:52.459Z,4.30
2017-11-01T04:44:18.649Z,4.70
2017-11-01T04:46:45.486Z,4.50
2017-11-01T04:49:12.418Z,4.60
2017-11-01T04:51:41.244Z,5.13
2017-11-01T04:54:07.466Z,4.33
2017-11-01T04:56:33.890Z,4.60
2017-11-01T04:59:00.117Z,5.50
2017-11-01T05:01:26.448Z,4.83
2017-11-01T05:03:52.698Z,4.73
2017-11-01T05:06:18.835Z,5.13
2017-11-01T05:08:48.929Z,5.10
2017-11-01T05:11:18.006Z,4.80
2017-11-01T05:13:44.132Z,6.00
2017-11-01T05:16:10.329Z,4.90
2017-11-01T05:18:37.303Z,5.50
2017-11-01T05:21:03.464Z,5.67
2017-11-01T05:23:29.621Z,5.30
2017-11-01T05:26:01.802Z,4.90
2017-11-01T05:28:28.663Z,5.93
2017-11-01T05:30:54.754Z,4.90
2017-11-01T05:33:20.960Z,5.67
2017-11-01T05:35:47.145Z,5.20
2017-11-01T05:38:13.313Z,6.33
2017-11-01T05:40:39.432Z,6.20
2017-11-01T05:43:05.602Z,5.90
2017-11-01T05:45:32.610Z,6.10
2017-11-01T05:47:58.943Z,7.10
2017-11-01T05:50:25.145Z,5.90
2017-11-01T05:52:51.397Z,6.97
2017-11-01T05:55:17.624Z,6.20
2017-11-01T05:57:43.695Z,6.13
2017-11-01T06:00:09.875Z,5.73
2017-11-01T06:02:36.091Z,6.40
2017-11-01T06:05:02.253Z,6.30
2017-11-01T06:07:29.122Z,5.80
2017-11-01T06:09:55.351Z,5.77
2017-11-01T06:12:21.704Z,6.40
2017-11-01T06:14:47.869Z,6.30
2017-11-01T06:17:14.691Z,6.13
2017-11-01T06:19:40.853Z,5.57
2017-11-01T06:22:06.947Z,6.17
2017-11-01T06:24:33.870Z,5.40
2017-11-01T06:27:00.055Z,5.90
2017-11-01T06:29:26.197Z,5.37
2017-11-01T06:31:52.316Z,6.00
2017-11-01T06:34:18.560Z,5.33
2017-11-01T06:36:46.657Z,5.63
2017-11-01T06:39:12.897Z,5.13
2017-11-01T06:41:39.008Z,5.53
2017-11-01T06:44:05.194Z,5.63
2017-11-01T06:46:31.364Z,5.60
2017-11-01T06:48:57.482Z,5.47
2017-11-01T06:51:23.605Z,5.07
2017-11-01T06:53:49.738Z,5.40
2017-11-01T06:56:15.923Z,4.70
2017-11-01T06:58:42.078Z,5.10
2017-11-01T07:01:11.426Z,4.40
2017-11-01T07:03:37.642Z,4.77
2017-11-01T07:06:03.833Z,5.13
2017-11-01T07:08:30.090Z,4.20
2017-11-01T07:10:57.016Z,4.40
2017-11-01T07:13:23.124Z,4.27
2017-11-01T07:15:49.288Z,4.43
2017-11-01T07:18:15.490Z,3.60
2017-11-01T07:20:41.631Z,3.87
2017-11-01T07:23:08.683Z,4.57
2017-11-01T07:25:35.604Z,3.80
2017-11-01T07:28:01.837Z,4.20
2017-11-01T07:30:28.741Z,3.77
2017-11-01T07:32:54.899Z,4.17
2017-11-01T07:35:21.179Z,3.97
2017-11-01T07:37:47.350Z,4.13
2017-11-01T07:40:13.531Z,4.43
2017-11-01T07:42:39.633Z,3.90
2017-11-01T07:45:05.768Z,4.00
2017-11-01T07:47:31.898Z,3.50
2017-11-01T07:49:58.018Z,4.20
2017-11-01T07:52:24.238Z,4.43
2017-11-01T07:54:50.446Z,3.67
2017-11-01T07:57:16.649Z,4.70
2017-11-01T07:59:42.916Z,4.90
2017-11-01T08:02:09.191Z,4.37
2017-11-01T08:04:35.568Z,5.10
2017-11-01T08:07:02.490Z,5.50
2017-11-01T08:09:29.445Z,5.07
2017-11-01T08:11:56.280Z,5.23
2017-11-01T08:14:23.159Z,4.53
2017-11-01T08:16:49.407Z,6.07
2017-11-01T08:19:15.528Z,5.20
2017-11-01T08:21:41.678Z,5.40
2017-11-01T08:24:07.880Z,5.67
2017-11-01T08:26:34.176Z,5.87
2017-11-01T08:29:00.302Z,5.23
2017-11-01T08:31:26.438Z,4.90
2017-11-01T08:33:52.595Z,5.40
2017-11-01T08:36:18.739Z,4.50
2017-11-01T08:38:45.025Z,4.03
2017-11-01T08:41:11.250Z,4.20
2017-11-01T08:43:37.405Z,4.13
2017-11-01T08:46:03.562Z,4.83
2017-11-01T08:48:30.530Z,3.80
2017-11-01T08:50:56.703Z,4.40
2017-11-01T08:53:22.813Z,4.40
2017-11-01T08:55:48.926Z,4.30
2017-11-01T08:58:15.121Z,4.60
2017-11-01T09:00:41.254Z,4.20
2017-11-01T09:03:07.476Z,5.07
2017-11-01T09:05:33.592Z,4.70
2017-11-01T09:07:59.777Z,4.70
2017-11-01T09:10:25.903Z,5.07
2017-11-01T09:12:52.015Z,5.10
2017-11-01T09:15:18.156Z,5.93
2017-11-01T09:17:44.277Z,6.10
2017-11-01T09:20:10.508Z,5.80
2017-11-01T09:22:36.670Z,6.00
2017-11-01T09:25:02.924Z,5.97
2017-11-01T09:27:29.118Z,6.47
2017-11-01T09:29:55.276Z,5.63
2017-11-01T09:32:21.407Z,5.53
2017-11-01T09:34:47.594Z,5.57
2017-11-01T09:37:13.783Z,5.67
2017-11-01T09:39:40.026Z,6.10
2017-11-01T09:42:06.201Z,5.37
2017-11-01T09:44:32.430Z,5.30
2017-11-01T09:46:58.662Z,4.80
2017-11-01T09:49:24.836Z,5.57
2017-11-01T09:51:51.691Z,5.53
2017-11-01T09:54:18.005Z,5.50
2017-11-01T09:56:44.893Z,5.20
2017-11-01T09:59:11.029Z,5.00
2017-11-01T10:01:37.146Z,5.47
2017-11-01T10:04:03.373Z,5.53
2017-11-01T10:06:29.617Z,5.40
2017-11-01T10:08:55.741Z,6.00
2017-11-01T10:11:21.940Z,6.00
2017-11-01T10:13:48.060Z,5.60
2017-11-01T10:16:14.239Z,5.70
2017-11-01T10:18:40.431Z,5.90
2017-11-01T10:21:06.599Z,4.97
2017-11-01T10:23:32.809Z,6.47
2017-11-01T10:25:58.937Z,6.93
2017-11-01T10:28:25.098Z,6.93
2017-11-01T10:30:51.342Z,7.80
2017-11-01T10:33:17.454Z,6.47
2017-11-01T10:35:43.649Z,7.20
2017-11-01T10:38:09.855Z,7.07
2017-11-01T10:40:36.039Z,7.37
2017-11-01T10:43:02.335Z,7.20
2017-11-01T10:45:29.249Z,6.93
2017-11-01T10:47:55.432Z,6.83
2017-11-01T10:50:21.621Z,7.80
2017-11-01T10:52:47.834Z,6.80
2017-11-01T10:55:13.965Z,6.70
2017-11-01T10:57:40.079Z,6.37
2017-11-01T11:00:06.348Z,6.67
2017-11-01T11:02:33.318Z,6.67
2017-11-01T11:04:59.590Z,6.07
2017-11-01T11:07:25.777Z,6.60
2017-11-01T11:09:52.004Z,6.77
2017-11-01T11:12:18.192Z,6.50
2017-11-01T11:14:45.218Z,6.60
2017-11-01T11:17:12.081Z,5.40
2017-11-01T11:19:39.043Z,5.67
2017-11-01T11:22:05.300Z,6.50
2017-11-01T11:24:31.515Z,6.97
2017-11-01T11:26:57.719Z,5.20
2017-11-01T11:29:23.856Z,5.00
2017-11-01T11:31:50.271Z,6.10
2017-11-01T11:34:17.278Z,5.33
2017-11-01T11:36:43.523Z,5.23
2017-11-01T11:39:10.009Z,4.30
2017-11-01T11:41:36.159Z,5.53
2017-11-01T11:44:02.376Z,4.60
2017-11-01T11:46:28.725Z,5.43
2017-11-01T11:48:54.932Z,5.53
2017-11-01T11:51:21.055Z,5.87
2017-11-01T11:53:47.262Z,5.53
2017-11-01T11:56:13.433Z,5.47
2017-11-01T11:58:39.664Z,5.63
2017-11-01T12:01:05.773Z,5.53
2017-11-01T12:03:32.700Z,6.27
2017-11-01T12:05:59.734Z,5.17
2017-11-01T12:08:25.922Z,5.87
2017-11-01T12:10:52.898Z,5.00
2017-11-01T12:13:19.127Z,5.97
2017-11-01T12:15:45.349Z,5.63
2017-11-01T12:18:11.507Z,5.63
2017-11-01T12:20:37.724Z,4.90
2017-11-01T12:23:03.896Z,4.20
2017-11-01T12:25:30.820Z,4.47
2017-11-01T12:27:56.953Z,4.40
2017-11-01T12:30:23.122Z,4.70
2017-11-01T12:32:49.362Z,5.13
2017-11-01T12:35:15.698Z,4.13
2017-11-01T12:37:42.594Z,4.10
2017-11-01T12:40:08.721Z,3.87
2017-11-01T12:42:35.774Z,4.10
2017-11-01T12:45:02.329Z,3.63
2017-11-01T12:47:28.506Z,3.53
2017-11-01T12:49:54.588Z,3.40
2017-11-01T12:52:20.764Z,3.67
2017-11-01T12:54:47.085Z,3.70
2017-11-01T12:57:13.417Z,3.13
2017-11-01T12:59:40.492Z,3.20
2017-11-01T13:02:06.895Z,3.30
2017-11-01T13:04:33.289Z,2.90
2017-11-01T13:06:59.417Z,3.07
2017-11-01T13:09:25.561Z,3.30
2017-11-01T13:11:51.769Z,2.93
2017-11-01T13:14:17.891Z,2.67
2017-11-01T13:16:44.391Z,2.93
2017-11-01T13:19:10.581Z,2.77
2017-11-01T13:21:36.715Z,2.80
2017-11-01T13:24:03.687Z,2.63
2017-11-01T13:26:29.838Z,2.60
2017-11-01T13:28:56.317Z,2.27
2017-11-01T13:31:22.523Z,2.60
2017-11-01T13:33:48.808Z,3.00
2017-11-01T13:36:15.006Z,2.63
2017-11-01T13:38:41.926Z,2.53
2017-11-01T13:41:08.171Z,4.00
2017-11-01T13:43:34.409Z,3.37
2017-11-01T13:46:00.613Z,2.97
2017-11-01T13:48:27.067Z,3.07
2017-11-01T13:50:53.968Z,3.40
2017-11-01T13:53:20.120Z,3.33
2017-11-01T13:55:46.429Z,3.90
2017-11-01T13:58:12.560Z,3.73
2017-11-01T14:00:38.768Z,5.13
2017-11-01T14:03:04.922Z,4.50
2017-11-01T14:05:31.260Z,4.23
2017-11-01T14:07:58.211Z,4.00
2017-11-01T14:10:25.099Z,4.00
2017-11-01T14:12:51.282Z,3.77
2017-11-01T14:15:18.326Z,3.40
2017-11-01T14:17:45.195Z,2.80
2017-11-01T14:20:11.395Z,2.70
2017-11-01T14:22:38.254Z,3.70
2017-11-01T14:25:05.109Z,4.30
2017-11-01T14:27:31.333Z,4.87
2017-11-01T14:29:57.561Z,4.20
2017-11-01T14:32:23.711Z,4.40
2017-11-01T14:34:49.938Z,3.80
2017-11-01T14:37:16.073Z,4.17
2017-11-01T14:39:42.262Z,5.40
2017-11-01T14:42:08.506Z,4.77
2017-11-01T14:44:34.832Z,3.90
2017-11-01T14:47:01.008Z,3.67
2017-11-01T14:49:27.118Z,3.50
2017-11-01T14:51:53.291Z,4.87
2017-11-01T14:54:19.570Z,3.97
2017-11-01T14:56:45.786Z,3.20
2017-11-01T14:59:11.945Z,3.50
2017-11-01T15:01:38.972Z,2.67
2017-11-01T15:04:05.148Z,3.13
2017-11-01T15:06:31.427Z,2.23
2017-11-01T15:08:57.588Z,2.57
2017-11-01T15:11:24.706Z,2.30
2017-11-01T15:13:51.740Z,2.13
2017-11-01T15:16:17.949Z,2.87
2017-11-01T15:18:44.111Z,1.90
2017-11-01T15:21:10.240Z,2.83
2017-11-01T15:23:36.436Z,2.90
2017-11-01T15:26:02.708Z,2.77
2017-11-01T15:28:29.609Z,2.67
2017-11-01T15:30:55.877Z,3.13
2017-11-01T15:33:22.877Z,3.30
2017-11-01T15:35:49.038Z,6.77
2017-11-01T15:38:15.198Z,6.50
2017-11-01T15:40:41.329Z,8.00
2017-11-01T15:43:07.494Z,9.23
2017-11-01T15:45:33.657Z,7.50
2017-11-01T15:48:00.678Z,8.73
2017-11-01T15:50:26.876Z,7.20
2017-11-01T15:52:53.021Z,6.00
2017-11-01T15:55:19.160Z,3.30
2017-11-01T15:57:46.131Z,3.37
2017-11-01T16:00:12.396Z,3.60
2017-11-01T16:02:38.617Z,7.23
2017-11-01T16:05:04.877Z,6.43
2017-11-01T16:07:31.027Z,7.80
2017-11-01T16:09:57.337Z,8.40
2017-11-01T16:12:24.265Z,7.73
2017-11-01T16:14:50.479Z,5.10
2017-11-01T16:17:16.745Z,7.00
2017-11-01T16:19:43.714Z,8.10
2017-11-01T16:22:09.881Z,5.90
2017-11-01T16:24:36.106Z,5.30
2017-11-01T16:27:02.223Z,4.90
2017-11-01T16:29:28.537Z,3.53
2017-11-01T16:31:54.723Z,2.77
2017-11-01T16:34:21.595Z,2.57
2017-11-01T16:36:47.854Z,2.50
2017-11-01T16:39:14.846Z,5.97
2017-11-01T16:41:41.828Z,5.50
2017-11-01T16:44:07.992Z,6.10
2017-11-01T16:46:34.451Z,4.23
2017-11-01T16:49:01.312Z,3.70
2017-11-01T16:51:27.504Z,4.83
2017-11-01T16:53:54.570Z,3.70
2017-11-01T16:56:20.784Z,3.53
2017-11-01T16:58:46.903Z,3.10
2017-11-01T17:01:14.041Z,3.80
2017-11-01T17:03:40.261Z,3.00
2017-11-01T17:06:06.532Z,2.70
2017-11-01T17:08:32.714Z,3.33
2017-11-01T17:10:58.845Z,3.57
2017-11-01T17:13:25.109Z,4.53
2017-11-01T17:15:51.247Z,4.07
2017-11-01T17:18:17.450Z,3.43
2017-11-01T17:20:44.403Z,2.90
2017-11-01T17:23:10.701Z,3.23
2017-11-01T17:25:37.761Z,2.83
2017-11-01T17:28:04.651Z,3.37
2017-11-01T17:30:30.843Z,2.93
2017-11-01T17:32:57.044Z,2.90
2017-11-01T17:35:23.264Z,2.83
2017-11-01T17:37:50.266Z,3.00
2017-11-01T17:40:16.687Z,4.80
2017-11-01T17:42:42.864Z,6.27
2017-11-01T17:45:09.649Z,5.13
2017-11-01T17:47:35.935Z,4.23
2017-11-01T17:50:02.086Z,4.60
2017-11-01T17:52:29.028Z,3.80
2017-11-01T17:54:55.355Z,5.33
2017-11-01T17:57:22.288Z,5.43
2017-11-01T17:59:49.256Z,4.00
2017-11-01T18:02:15.467Z,3.80
2017-11-01T18:04:41.630Z,4.30
2017-11-01T18:07:07.781Z,4.43
2017-11-01T18:09:34.408Z,4.63
2017-11-01T18:12:00.690Z,4.53
2017-11-01T18:14:26.965Z,4.40
2017-11-01T18:16:53.158Z,5.10
2017-11-01T18:19:19.446Z,4.80
2017-11-01T18:21:45.650Z,4.83
2017-11-01T18:24:11.842Z,4.60
2017-11-01T18:26:38.157Z,6.20
2017-11-01T18:29:04.383Z,6.80
2017-11-01T18:31:30.545Z,5.70
2017-11-01T18:33:56.702Z,5.73
2017-11-01T18:36:22.915Z,5.27
2017-11-01T18:38:49.208Z,4.53
2017-11-01T18:41:15.564Z,4.13
2017-11-01T18:43:41.747Z,4.40
2017-11-01T18:46:08.016Z,4.37
2017-11-01T18:48:34.320Z,9.03
2017-11-01T18:51:00.412Z,10.17
2017-11-01T18:53:27.491Z,10.13
2017-11-01T18:55:53.796Z,9.10
2017-11-01T18:58:20.788Z,7.57
2017-11-01T19:00:47.144Z,6.70
2017-11-01T19:03:13.289Z,10.53
2017-11-01T19:05:40.412Z,7.90
2017-11-01T19:08:06.623Z,6.87
2017-11-01T19:10:32.836Z,6.07
2017-11-01T19:12:59.125Z,4.30
2017-11-01T19:15:26.084Z,6.13
2017-11-01T19:17:52.202Z,6.83
2017-11-01T19:20:18.452Z,6.70
2017-11-01T19:22:44.661Z,8.70
2017-11-01T19:25:10.949Z,8.80
2017-11-01T19:27:37.131Z,9.80
2017-11-01T19:30:03.369Z,6.90
2017-11-01T19:32:29.628Z,6.80
2017-11-01T19:34:55.841Z,8.00
2017-11-01T19:37:22.045Z,7.43
2017-11-01T19:39:48.349Z,10.73
2017-11-01T19:42:14.658Z,14.90
2017-11-01T19:44:40.942Z,13.80
2017-11-01T19:47:07.136Z,19.60
2017-11-01T19:49:33.407Z,18.87
2017-11-01T19:51:59.582Z,13.20
2017-11-01T19:54:25.854Z,16.37
2017-11-01T19:56:52.170Z,14.50
2017-11-01T19:59:18.426Z,16.57
2017-11-01T20:01:44.683Z,17.43
2017-11-01T20:04:10.954Z,15.53
2017-11-01T20:06:37.217Z,15.17
2017-11-01T20:09:03.485Z,14.30
2017-11-01T20:11:29.631Z,14.60
2017-11-01T20:13:56.848Z,14.73
2017-11-01T20:16:23.086Z,14.30
2017-11-01T20:18:49.316Z,20.53
2017-11-01T20:21:15.525Z,18.23
2017-11-01T20:23:41.788Z,15.93
2017-11-01T20:26:08.285Z,15.67
2017-11-01T20:28:35.288Z,17.00
2017-11-01T20:31:01.482Z,17.63
2017-11-01T20:33:27.798Z,18.80
2017-11-01T20:35:54.079Z,17.73
2017-11-01T20:38:20.246Z,18.13
2017-11-01T20:40:46.458Z,18.37
2017-11-01T20:43:12.776Z,17.17
2017-11-01T20:45:39.811Z,19.03
2017-11-01T20:48:06.118Z,15.13
2017-11-01T20:50:32.257Z,15.90
2017-11-01T20:52:58.429Z,11.10
2017-11-01T20:55:24.628Z,9.63
2017-11-01T20:57:51.538Z,10.87
2017-11-01T21:00:17.820Z,8.50
2017-11-01T21:02:44.044Z,9.83
2017-11-01T21:05:10.391Z,12.10
2017-11-01T21:07:36.593Z,11.30
2017-11-01T21:10:03.643Z,13.77
2017-11-01T21:12:30.498Z,13.30
2017-11-01T21:14:57.749Z,14.50
2017-11-01T21:17:24.157Z,11.67
2017-11-01T21:19:51.268Z,11.50
2017-11-01T21:22:18.287Z,12.63
2017-11-01T21:24:44.525Z,12.20
2017-11-01T21:27:10.744Z,11.57
2017-11-01T21:29:36.937Z,11.20
2017-11-01T21:32:03.877Z,7.37
2017-11-01T21:34:30.766Z,5.00
2017-11-01T21:36:57.011Z,4.07
2017-11-01T21:39:23.288Z,3.03
2017-11-01T21:41:49.400Z,4.20
2017-11-01T21:44:16.330Z,3.70
2017-11-01T21:46:42.552Z,2.60
2017-11-01T21:49:08.757Z,3.53
2017-11-01T21:51:35.020Z,3.37
2017-11-01T21:54:01.991Z,4.27
2017-11-01T21:56:28.276Z,4.00
2017-11-01T21:58:55.236Z,3.27
2017-11-01T22:01:22.234Z,3.70
2017-11-01T22:03:48.368Z,3.50
2017-11-01T22:06:14.559Z,3.80
2017-11-01T22:08:40.875Z,4.90
2017-11-01T22:11:07.880Z,11.30
2017-11-01T22:13:34.202Z,7.10
2017-11-01T22:16:01.154Z,7.13
2017-11-01T22:18:27.234Z,4.87
2017-11-01T22:20:53.479Z,4.27
2017-11-01T22:23:19.731Z,3.87
2017-11-01T22:25:45.923Z,4.03
2017-11-01T22:28:12.143Z,4.53
2017-11-01T22:30:38.382Z,2.80
2017-11-01T22:33:04.692Z,3.90
2017-11-01T22:35:30.799Z,2.77
2017-11-01T22:37:57.750Z,2.27
2017-11-01T22:40:23.954Z,5.77
2017-11-01T22:42:50.156Z,4.30
2017-11-01T22:45:16.406Z,2.77
2017-11-01T22:47:42.515Z,2.63
2017-11-01T22:50:08.705Z,2.00
2017-11-01T22:52:35.024Z,2.67
2017-11-01T22:55:01.232Z,2.90
2017-11-01T22:57:27.470Z,2.40
2017-11-01T22:59:53.662Z,2.40
2017-11-01T23:02:20.638Z,2.13
2017-11-01T23:04:46.851Z,2.33
2017-11-01T23:07:13.830Z,2.50
2017-11-01T23:09:40.135Z,2.10
2017-11-01T23:12:06.298Z,2.60
2017-11-01T23:14:32.528Z,2.00
2017-11-01T23:16:58.681Z,2.97
2017-11-01T23:19:24.813Z,2.20
2017-11-01T23:21:51.080Z,2.00
2017-11-01T23:24:17.175Z,2.30
2017-11-01T23:26:44.259Z,2.10
2017-11-01T23:29:10.562Z,2.10
2017-11-01T23:31:36.754Z,1.90
2017-11-01T23:34:02.938Z,2.20
2017-11-01T23:36:29.215Z,2.67
2017-11-01T23:38:55.352Z,2.90
2017-11-01T23:41:22.240Z,2.87
2017-11-01T23:43:48.448Z,1.90
2017-11-01T23:46:14.632Z,2.40
2017-11-01T23:48:40.905Z,2.23
2017-11-01T23:51:07.097Z,1.87
2017-11-01T23:53:34.006Z,3.00
2017-11-01T23:56:00.184Z,3.10
2017-11-01T23:58:27.177Z,3.17
